createdAt,value
2023-05-15T00:00:01.621Z,5.75
2023-05-15T00:02:28.141Z,5.80
2023-05-15T00:04:54.613Z,5.28
2023-05-15T00:07:20.827Z,5.53
2023-05-15T00:09:47.384Z,5.57
2023-05-15T00:12:13.431Z,5.35
2023-05-15T00:14:39.558Z,5.78
2023-05-15T00:17:06.012Z,5.95
2023-05-15T00:19:32.300Z,5.60
2023-05-15T00:21:58.564Z,5.43
2023-05-15T00:24:24.815Z,5.80
2023-05-15T00:26:51.007Z,6.10
2023-05-15T00:29:17.290Z,7.20
2023-05-15T00:31:43.593Z,6.25
2023-05-15T00:34:09.838Z,6.80
2023-05-15T00:36:36.044Z,6.38
2023-05-15T00:39:02.377Z,6.57
2023-05-15T00:41:32.092Z,7.63
2023-05-15T00:44:01.132Z,6.43
2023-05-15T00:46:28.547Z,6.97
2023-05-15T00:48:56.000Z,6.65
2023-05-15T00:51:22.984Z,7.30
2023-05-15T00:53:52.231Z,5.68
2023-05-15T00:56:18.970Z,7.00
2023-05-15T00:58:51.158Z,7.25
2023-05-15T01:01:17.847Z,6.40
2023-05-15T01:03:44.356Z,7.28
2023-05-15T01:06:12.421Z,6.60
2023-05-15T01:08:47.664Z,6.38
2023-05-15T01:11:17.501Z,6.43
2023-05-15T01:13:44.174Z,6.05
2023-05-15T01:16:10.573Z,6.13
2023-05-15T01:18:38.704Z,5.88
2023-05-15T01:21:07.954Z,6.07
2023-05-15T01:23:59.133Z,6.65
2023-05-15T01:26:47.003Z,6.78
2023-05-15T01:29:40.106Z,6.45
2023-05-15T01:32:10.772Z,6.57
2023-05-15T01:35:18.911Z,6.70
2023-05-15T01:37:56.533Z,6.70
2023-05-15T01:40:25.523Z,6.65
2023-05-15T01:42:55.201Z,6.82
2023-05-15T01:45:23.471Z,6.13
2023-05-15T01:47:51.509Z,6.93
2023-05-15T01:50:21.396Z,6.78
2023-05-15T01:52:56.523Z,6.65
2023-05-15T01:55:23.725Z,6.57
2023-05-15T01:57:51.202Z,6.80
2023-05-15T02:00:17.938Z,6.88
2023-05-15T02:02:47.791Z,6.40
2023-05-15T02:05:14.465Z,6.80
2023-05-15T02:07:44.122Z,6.53
2023-05-15T02:10:14.457Z,6.18
2023-05-15T02:12:41.476Z,6.75
2023-05-15T02:15:13.153Z,6.28
2023-05-15T02:17:39.525Z,7.00
2023-05-15T02:20:07.353Z,7.32
2023-05-15T02:22:34.789Z,5.78
2023-05-15T02:25:00.943Z,5.70
2023-05-15T02:27:29.434Z,6.63
2023-05-15T02:30:02.102Z,6.57
2023-05-15T02:32:40.448Z,6.93
2023-05-15T02:35:38.406Z,6.32
2023-05-15T02:38:08.013Z,6.90
2023-05-15T02:40:36.200Z,6.22
2023-05-15T02:43:03.395Z,7.60
2023-05-15T02:45:30.678Z,6.80
2023-05-15T02:47:57.522Z,7.30
2023-05-15T02:50:30.915Z,6.20
2023-05-15T02:53:09.795Z,5.93
2023-05-15T02:55:37.410Z,6.60
2023-05-15T02:58:04.385Z,6.35
2023-05-15T03:00:30.797Z,6.00
2023-05-15T03:05:28.930Z,6.43
2023-05-15T03:07:57.105Z,6.20
2023-05-15T03:10:24.797Z,7.45
2023-05-15T03:12:51.382Z,6.30
2023-05-15T03:15:20.404Z,6.70
2023-05-15T03:17:46.869Z,6.20
2023-05-15T03:20:14.289Z,6.32
2023-05-15T03:22:41.331Z,6.68
2023-05-15T03:25:18.243Z,6.80
2023-05-15T03:27:47.029Z,6.43
2023-05-15T03:30:15.828Z,7.07
2023-05-15T03:32:45.014Z,7.53
2023-05-15T03:35:11.558Z,6.85
2023-05-15T03:37:37.681Z,6.78
2023-05-15T03:40:04.701Z,6.32
2023-05-15T03:42:30.822Z,6.05
2023-05-15T03:44:57.110Z,7.40
2023-05-15T03:47:23.492Z,7.95
2023-05-15T03:49:49.801Z,8.45
2023-05-15T03:52:16.028Z,8.68
2023-05-15T03:54:50.805Z,8.30
2023-05-15T03:57:17.058Z,7.82
2023-05-15T03:59:43.390Z,7.93
2023-05-15T04:02:16.859Z,8.07
2023-05-15T04:04:44.350Z,8.02
2023-05-15T04:07:10.543Z,8.25
2023-05-15T04:09:36.978Z,8.80
2023-05-15T04:12:03.401Z,8.23
2023-05-15T04:14:29.740Z,8.35
2023-05-15T04:16:56.085Z,7.93
2023-05-15T04:19:22.452Z,8.25
2023-05-15T04:21:49.729Z,7.95
2023-05-15T04:24:18.586Z,7.72
2023-05-15T04:26:45.040Z,7.88
2023-05-15T04:29:11.501Z,7.03
2023-05-15T04:31:38.244Z,6.65
2023-05-15T04:34:07.449Z,7.07
2023-05-15T04:36:34.498Z,6.93
2023-05-15T04:39:00.992Z,7.10
2023-05-15T04:41:27.352Z,6.80
2023-05-15T04:43:55.831Z,6.93
2023-05-15T04:46:22.864Z,6.88
2023-05-15T04:48:49.215Z,6.72
2023-05-15T04:51:15.436Z,6.32
2023-05-15T04:53:42.778Z,6.38
2023-05-15T04:56:09.611Z,6.85
2023-05-15T04:58:35.968Z,7.05
2023-05-15T05:01:04.133Z,6.47
2023-05-15T05:03:30.729Z,6.75
2023-05-15T05:05:56.922Z,6.65
2023-05-15T05:08:23.453Z,6.60
2023-05-15T05:10:55.413Z,6.00
2023-05-15T05:13:21.849Z,5.97
2023-05-15T05:15:53.202Z,6.18
2023-05-15T05:18:19.556Z,6.70
2023-05-15T05:20:46.029Z,5.53
2023-05-15T05:23:17.237Z,6.00
2023-05-15T05:25:43.644Z,6.03
2023-05-15T05:28:10.057Z,6.15
2023-05-15T05:30:39.182Z,6.68
2023-05-15T05:33:08.453Z,6.03
2023-05-15T05:35:34.713Z,6.30
2023-05-15T05:38:02.163Z,6.10
2023-05-15T05:40:28.469Z,5.72
2023-05-15T05:42:54.658Z,5.72
2023-05-15T05:45:21.037Z,5.30
2023-05-15T05:47:47.348Z,6.00
2023-05-15T05:50:13.691Z,5.65
2023-05-15T05:52:46.114Z,5.30
2023-05-15T05:55:12.419Z,5.63
2023-05-15T05:57:41.592Z,5.70
2023-05-15T06:00:11.433Z,5.43
2023-05-15T06:02:40.854Z,6.05
2023-05-15T06:05:08.484Z,5.05
2023-05-15T06:07:35.014Z,5.20
2023-05-15T06:10:05.016Z,4.43
2023-05-15T06:12:31.487Z,4.63
2023-05-15T06:14:58.604Z,5.00
2023-05-15T06:17:25.433Z,4.70
2023-05-15T06:19:51.878Z,5.40
2023-05-15T06:22:20.029Z,4.85
2023-05-15T06:24:46.188Z,4.95
2023-05-15T06:27:12.697Z,5.20
2023-05-15T06:29:41.933Z,4.40
2023-05-15T06:32:08.308Z,7.95
2023-05-15T06:34:34.653Z,5.03
2023-05-15T06:37:04.389Z,4.20
2023-05-15T06:39:30.753Z,5.13
2023-05-15T06:42:00.941Z,4.47
2023-05-15T06:44:31.782Z,4.30
2023-05-15T06:46:58.263Z,4.75
2023-05-15T06:49:25.265Z,4.18
2023-05-15T06:51:51.717Z,3.95
2023-05-15T06:54:18.187Z,4.40
2023-05-15T06:56:44.319Z,4.15
2023-05-15T06:59:10.637Z,4.88
2023-05-15T07:01:37.846Z,4.28
2023-05-15T07:04:04.548Z,4.38
2023-05-15T07:06:33.530Z,3.75
2023-05-15T07:09:03.314Z,3.53
2023-05-15T07:11:29.755Z,3.40
2023-05-15T07:13:56.513Z,4.75
2023-05-15T07:16:25.674Z,4.97
2023-05-15T07:18:51.856Z,3.28
2023-05-15T07:21:18.246Z,4.03
2023-05-15T07:23:44.979Z,4.82
2023-05-15T07:26:20.061Z,4.10
2023-05-15T07:28:55.810Z,3.63
2023-05-15T07:31:22.407Z,3.13
2023-05-15T07:33:52.073Z,3.55
2023-05-15T07:36:21.386Z,4.93
2023-05-15T07:38:47.840Z,5.90
2023-05-15T07:41:14.291Z,4.22
2023-05-15T07:43:40.897Z,10.95
2023-05-15T07:46:07.707Z,13.25
2023-05-15T07:48:34.236Z,5.65
2023-05-15T07:51:00.691Z,3.42
2023-05-15T07:53:27.213Z,3.22
2023-05-15T07:55:53.838Z,3.55
2023-05-15T07:58:20.522Z,3.65
2023-05-15T08:00:46.842Z,3.33
2023-05-15T08:03:13.409Z,3.38
2023-05-15T08:05:40.827Z,3.40
2023-05-15T08:08:07.196Z,3.90
2023-05-15T08:10:42.632Z,3.80
2023-05-15T08:13:09.126Z,3.38
2023-05-15T08:15:35.828Z,3.70
2023-05-15T08:18:02.452Z,3.42
2023-05-15T08:20:30.790Z,4.00
2023-05-15T08:22:57.021Z,4.00
2023-05-15T08:25:26.488Z,3.85
2023-05-15T08:27:53.732Z,3.50
2023-05-15T08:30:20.250Z,3.70
2023-05-15T08:32:47.030Z,3.40
2023-05-15T08:35:13.715Z,3.92
2023-05-15T08:37:42.850Z,4.18
2023-05-15T08:40:09.826Z,3.65
2023-05-15T08:42:48.676Z,3.60
2023-05-15T08:45:18.141Z,4.13
2023-05-15T08:47:44.417Z,3.97
2023-05-15T08:50:13.912Z,3.50
2023-05-15T08:52:46.331Z,3.78
2023-05-15T08:55:16.233Z,3.47
2023-05-15T08:57:43.844Z,3.85
2023-05-15T09:00:11.856Z,3.45
2023-05-15T09:02:43.087Z,3.35
2023-05-15T09:05:10.128Z,3.03
2023-05-15T09:07:38.394Z,3.65
2023-05-15T09:10:07.385Z,3.60
2023-05-15T09:12:34.644Z,3.70
2023-05-15T09:15:14.730Z,3.50
2023-05-15T09:17:42.850Z,3.50
2023-05-15T09:20:33.552Z,3.30
2023-05-15T09:23:01.877Z,3.60
2023-05-15T09:25:46.626Z,3.97
2023-05-15T09:28:27.661Z,3.28
2023-05-15T09:31:04.855Z,3.70
2023-05-15T09:33:33.187Z,3.13
2023-05-15T09:35:59.791Z,4.10
2023-05-15T09:38:26.376Z,3.67
2023-05-15T09:41:11.019Z,3.40
2023-05-15T09:43:38.613Z,3.38
2023-05-15T09:46:06.190Z,4.05
2023-05-15T09:48:32.962Z,3.30
2023-05-15T09:51:02.551Z,3.08
2023-05-15T09:53:28.985Z,4.35
2023-05-15T09:55:55.721Z,4.13
2023-05-15T09:58:24.740Z,3.85
2023-05-15T10:00:50.987Z,3.83
2023-05-15T10:03:20.453Z,3.63
2023-05-15T10:05:46.876Z,3.30
2023-05-15T10:08:14.811Z,3.75
2023-05-15T10:10:41.676Z,3.75
2023-05-15T10:13:10.386Z,3.33
2023-05-15T10:15:40.180Z,3.40
2023-05-15T10:18:09.352Z,3.53
2023-05-15T10:20:36.862Z,3.83
2023-05-15T10:23:05.320Z,3.20
2023-05-15T10:25:52.982Z,3.53
2023-05-15T10:28:22.067Z,3.40
2023-05-15T10:30:48.548Z,3.70
2023-05-15T10:33:15.331Z,3.05
2023-05-15T10:35:42.366Z,3.50
2023-05-15T10:38:09.067Z,3.33
2023-05-15T10:40:37.677Z,3.28
2023-05-15T10:43:05.416Z,3.17
2023-05-15T10:45:33.050Z,3.30
2023-05-15T10:48:02.818Z,3.30
2023-05-15T10:50:29.158Z,2.70
2023-05-15T10:52:55.429Z,2.35
2023-05-15T10:55:24.653Z,2.67
2023-05-15T10:57:51.493Z,3.13
2023-05-15T11:00:25.287Z,3.50
2023-05-15T11:02:53.505Z,2.70
2023-05-15T11:05:19.762Z,3.00
2023-05-15T11:08:25.348Z,2.53
2023-05-15T11:10:52.680Z,3.08
2023-05-15T11:13:19.241Z,2.53
2023-05-15T11:15:52.572Z,2.40
2023-05-15T11:18:20.173Z,3.25
2023-05-15T11:20:49.256Z,3.00
2023-05-15T11:23:15.698Z,2.88
2023-05-15T11:25:42.012Z,2.80
2023-05-15T11:28:21.231Z,3.58
2023-05-15T11:30:53.701Z,3.15
2023-05-15T11:33:23.172Z,2.92
2023-05-15T11:36:00.264Z,2.75
2023-05-15T11:38:26.937Z,3.28
2023-05-15T11:40:58.122Z,3.72
2023-05-15T11:43:31.739Z,3.10
2023-05-15T11:46:05.691Z,3.22
2023-05-15T11:48:35.967Z,3.22
2023-05-15T11:51:02.788Z,3.00
2023-05-15T11:53:30.775Z,2.80
2023-05-15T11:55:57.218Z,2.75
2023-05-15T11:58:24.741Z,2.70
2023-05-15T12:00:53.062Z,2.90
2023-05-15T12:03:27.311Z,2.65
2023-05-15T12:05:59.442Z,3.05
2023-05-15T12:08:30.634Z,2.42
2023-05-15T12:10:58.392Z,2.03
2023-05-15T12:13:24.673Z,3.05
2023-05-15T12:15:56.933Z,2.10
2023-05-15T12:18:23.542Z,2.65
2023-05-15T12:20:52.408Z,2.50
2023-05-15T12:23:20.960Z,2.78
2023-05-15T12:25:47.521Z,2.63
2023-05-15T12:28:14.384Z,2.10
2023-05-15T12:30:41.931Z,2.50
2023-05-15T12:33:10.591Z,2.40
2023-05-15T12:35:40.733Z,2.13
2023-05-15T12:38:07.474Z,1.90
2023-05-15T12:40:35.005Z,1.75
2023-05-15T12:43:06.229Z,2.20
2023-05-15T12:45:38.865Z,2.67
2023-05-15T12:48:05.705Z,2.05
2023-05-15T12:50:33.238Z,1.80
2023-05-15T12:53:04.526Z,1.98
2023-05-15T12:55:34.279Z,2.00
2023-05-15T12:58:04.143Z,2.17
2023-05-15T13:00:31.556Z,1.80
2023-05-15T13:02:58.583Z,1.58
2023-05-15T13:05:25.887Z,1.65
2023-05-15T13:07:53.921Z,2.20
2023-05-15T13:10:24.974Z,2.75
2023-05-15T13:12:58.018Z,2.22
2023-05-15T13:15:29.408Z,1.90
2023-05-15T13:18:15.756Z,1.60
2023-05-15T13:20:43.411Z,1.45
2023-05-15T13:23:12.985Z,1.65
2023-05-15T13:25:39.969Z,1.40
2023-05-15T13:28:06.927Z,1.67
2023-05-15T13:30:34.570Z,1.73
2023-05-15T13:33:03.188Z,1.60
2023-05-15T13:35:29.560Z,1.90
2023-05-15T13:37:56.534Z,1.67
2023-05-15T13:40:23.269Z,1.65
2023-05-15T13:42:49.973Z,1.50
2023-05-15T13:45:16.545Z,1.65
2023-05-15T13:47:44.436Z,1.55
2023-05-15T13:50:13.722Z,1.25
2023-05-15T13:52:44.304Z,1.67
2023-05-15T13:55:13.380Z,1.40
2023-05-15T13:57:41.289Z,1.27
2023-05-15T14:00:12.311Z,1.10
2023-05-15T14:02:39.606Z,1.08
2023-05-15T14:05:07.531Z,1.20
2023-05-15T14:07:34.212Z,1.35
2023-05-15T14:10:01.720Z,0.90
2023-05-15T14:12:28.186Z,0.93
2023-05-15T14:14:55.545Z,1.50
2023-05-15T14:17:24.974Z,1.10
2023-05-15T14:19:51.881Z,1.38
2023-05-15T14:22:18.290Z,1.30
2023-05-15T14:24:45.415Z,1.27
2023-05-15T14:27:11.816Z,1.30
2023-05-15T14:29:39.565Z,1.42
2023-05-15T14:32:06.397Z,1.63
2023-05-15T14:34:33.864Z,1.42
2023-05-15T14:37:00.422Z,1.80
2023-05-15T14:39:26.928Z,1.70
2023-05-15T14:41:56.320Z,1.65
2023-05-15T14:44:22.583Z,1.58
2023-05-15T14:47:07.807Z,1.52
2023-05-15T14:49:34.906Z,1.48
2023-05-15T14:52:04.308Z,1.50
2023-05-15T14:54:34.094Z,1.33
2023-05-15T14:57:00.383Z,1.30
2023-05-15T14:59:30.165Z,1.85
2023-05-15T15:01:56.524Z,1.55
2023-05-15T15:04:22.979Z,1.65
2023-05-15T15:06:49.846Z,1.85
2023-05-15T15:09:17.008Z,1.00
2023-05-15T15:11:47.312Z,1.08
2023-05-15T15:14:13.444Z,1.20
2023-05-15T15:16:40.031Z,1.45
2023-05-15T15:19:07.196Z,1.20
2023-05-15T15:21:34.472Z,1.13
2023-05-15T15:24:02.372Z,1.33
2023-05-15T15:26:28.466Z,1.38
2023-05-15T15:29:00.416Z,1.27
2023-05-15T15:31:28.349Z,1.27
2023-05-15T15:33:54.732Z,1.27
2023-05-15T15:36:21.011Z,1.10
2023-05-15T15:38:48.978Z,1.00
2023-05-15T15:41:15.622Z,1.40
2023-05-15T15:43:42.334Z,1.40
2023-05-15T15:46:08.656Z,1.27
2023-05-15T15:48:35.076Z,1.30
2023-05-15T15:51:01.506Z,1.95
2023-05-15T15:53:29.496Z,1.48
2023-05-15T15:55:55.749Z,0.95
2023-05-15T15:58:22.335Z,1.33
2023-05-15T16:00:51.182Z,1.00
2023-05-15T16:03:17.796Z,1.13
2023-05-15T16:05:44.104Z,1.10
2023-05-15T16:08:15.063Z,1.20
2023-05-15T16:10:41.499Z,1.00
2023-05-15T16:13:07.858Z,1.00
2023-05-15T16:15:37.590Z,1.25
2023-05-15T16:18:06.741Z,1.45
2023-05-15T16:20:35.093Z,1.35
2023-05-15T16:23:01.738Z,1.60
2023-05-15T16:25:27.990Z,1.35
2023-05-15T16:27:54.203Z,1.60
2023-05-15T16:30:33.816Z,1.60
2023-05-15T16:33:10.763Z,1.30
2023-05-15T16:35:38.069Z,1.20
2023-05-15T16:38:04.423Z,1.63
2023-05-15T16:40:30.776Z,1.60
2023-05-15T16:42:57.386Z,1.30
2023-05-15T16:45:26.172Z,1.30
2023-05-15T16:47:52.542Z,2.08
2023-05-15T16:50:19.113Z,1.35
2023-05-15T16:52:47.429Z,1.50
2023-05-15T16:55:15.376Z,1.40
2023-05-15T16:57:42.457Z,1.63
2023-05-15T17:00:09.293Z,1.45
2023-05-15T17:02:36.437Z,1.50
2023-05-15T17:05:08.639Z,1.70
2023-05-15T17:07:36.377Z,1.80
2023-05-15T17:10:11.789Z,1.63
2023-05-15T17:12:38.430Z,1.60
2023-05-15T17:15:05.109Z,1.60
2023-05-15T17:17:32.269Z,1.60
2023-05-15T17:19:59.832Z,1.40
2023-05-15T17:22:30.536Z,2.10
2023-05-15T17:24:59.178Z,1.67
2023-05-15T17:27:34.648Z,1.55
2023-05-15T17:30:02.093Z,2.28
2023-05-15T17:32:28.525Z,1.63
2023-05-15T17:34:55.065Z,1.73
2023-05-15T17:37:24.108Z,1.70
2023-05-15T17:39:54.420Z,1.80
2023-05-15T17:42:21.398Z,1.58
2023-05-15T17:44:48.766Z,1.80
2023-05-15T17:47:15.102Z,1.80
2023-05-15T17:49:41.455Z,1.88
2023-05-15T17:52:10.336Z,1.90
2023-05-15T17:54:36.934Z,1.83
2023-05-15T17:57:03.506Z,1.58
2023-05-15T17:59:31.265Z,2.33
2023-05-15T18:01:58.175Z,1.50
2023-05-15T18:04:24.870Z,1.70
2023-05-15T18:06:52.438Z,1.95
2023-05-15T18:09:23.170Z,1.73
2023-05-15T18:11:51.031Z,1.95
2023-05-15T18:14:19.372Z,1.83
2023-05-15T18:16:46.852Z,1.67
2023-05-15T18:19:13.557Z,2.22
2023-05-15T18:21:40.639Z,2.13
2023-05-15T18:24:09.466Z,1.90
2023-05-15T18:26:35.933Z,2.10
2023-05-15T18:29:03.331Z,2.53
2023-05-15T18:31:32.481Z,2.28
2023-05-15T18:34:00.692Z,2.28
2023-05-15T18:36:28.514Z,2.20
2023-05-15T18:38:54.819Z,2.35
2023-05-15T18:41:22.694Z,2.20
2023-05-15T18:43:49.754Z,1.85
2023-05-15T18:46:17.524Z,2.50
2023-05-15T18:48:44.107Z,2.08
2023-05-15T18:51:16.751Z,2.17
2023-05-15T18:53:43.156Z,1.95
2023-05-15T18:56:09.987Z,1.92
2023-05-15T18:58:36.858Z,2.20
2023-05-15T19:01:03.195Z,2.03
2023-05-15T19:03:29.542Z,2.38
2023-05-15T19:06:00.503Z,2.40
2023-05-15T19:08:26.700Z,2.38
2023-05-15T19:10:54.496Z,2.30
2023-05-15T19:13:21.256Z,2.28
2023-05-15T19:15:53.791Z,2.22
2023-05-15T19:18:20.087Z,2.13
2023-05-15T19:20:51.980Z,2.08
2023-05-15T19:23:20.115Z,2.38
2023-05-15T19:25:46.292Z,3.65
2023-05-15T19:28:18.711Z,2.50
2023-05-15T19:30:44.901Z,1.85
2023-05-15T19:33:12.461Z,2.33
2023-05-15T19:35:39.033Z,2.25
2023-05-15T19:38:05.461Z,2.42
2023-05-15T19:40:34.789Z,1.80
2023-05-15T19:43:01.931Z,2.10
2023-05-15T19:45:30.198Z,2.17
2023-05-15T19:47:56.505Z,2.67
2023-05-15T19:50:23.669Z,2.33
2023-05-15T19:52:50.379Z,2.20
2023-05-15T19:55:16.965Z,2.42
2023-05-15T19:57:46.244Z,2.17
2023-05-15T20:00:13.084Z,2.40
2023-05-15T20:02:40.773Z,2.50
2023-05-15T20:05:07.736Z,2.55
2023-05-15T20:07:34.001Z,1.98
2023-05-15T20:10:03.716Z,2.40
2023-05-15T20:12:32.771Z,2.88
2023-05-15T20:15:02.185Z,2.72
2023-05-15T20:17:28.475Z,2.17
2023-05-15T20:19:57.451Z,2.85
2023-05-15T20:22:24.366Z,2.20
2023-05-15T20:24:52.682Z,2.40
2023-05-15T20:27:19.421Z,2.50
2023-05-15T20:29:45.615Z,2.85
2023-05-15T20:32:13.237Z,2.65
2023-05-15T20:34:42.484Z,2.80
2023-05-15T20:37:08.917Z,2.85
2023-05-15T20:39:35.221Z,2.92
2023-05-15T20:42:04.564Z,2.50
2023-05-15T20:44:30.774Z,2.72
2023-05-15T20:46:57.285Z,2.33
2023-05-15T20:49:23.447Z,2.47
2023-05-15T20:51:49.789Z,2.58
2023-05-15T20:54:16.110Z,2.67
2023-05-15T20:56:43.940Z,2.83
2023-05-15T20:59:10.389Z,2.58
2023-05-15T21:01:36.855Z,2.13
2023-05-15T21:04:03.852Z,2.65
2023-05-15T21:06:30.664Z,2.58
2023-05-15T21:08:56.772Z,2.78
2023-05-15T21:11:26.133Z,2.80
2023-05-15T21:13:52.439Z,2.72
2023-05-15T21:16:21.725Z,2.35
2023-05-15T21:18:48.627Z,2.67
2023-05-15T21:21:15.080Z,2.67
2023-05-15T21:23:41.215Z,2.80
2023-05-15T21:26:07.610Z,2.97
2023-05-15T21:28:36.603Z,2.80
2023-05-15T21:31:09.475Z,2.70
2023-05-15T21:33:39.059Z,3.03
2023-05-15T21:36:05.686Z,3.20
2023-05-15T21:38:38.271Z,2.65
2023-05-15T21:41:04.442Z,3.15
2023-05-15T21:43:30.694Z,2.70
2023-05-15T21:45:57.089Z,2.90
2023-05-15T21:48:26.488Z,3.42
2023-05-15T21:50:57.756Z,2.97
2023-05-15T21:53:24.809Z,2.97
2023-05-15T21:56:04.032Z,3.13
2023-05-15T21:58:31.007Z,3.05
2023-05-15T22:00:57.261Z,3.03
2023-05-15T22:03:23.735Z,3.10
2023-05-15T22:05:53.700Z,3.15
2023-05-15T22:08:20.749Z,3.25
2023-05-15T22:10:48.261Z,2.95
2023-05-15T22:13:14.529Z,3.47
2023-05-15T22:15:42.043Z,3.50
2023-05-15T22:18:09.891Z,3.08
2023-05-15T22:20:36.392Z,3.40
2023-05-15T22:23:02.588Z,3.20
2023-05-15T22:25:30.671Z,3.47
2023-05-15T22:27:56.850Z,3.42
2023-05-15T22:30:23.224Z,3.70
2023-05-15T22:32:49.714Z,3.65
2023-05-15T22:35:15.990Z,4.25
2023-05-15T22:37:42.603Z,4.05
2023-05-15T22:40:13.351Z,3.65
2023-05-15T22:42:39.646Z,3.05
2023-05-15T22:45:09.912Z,3.55
2023-05-15T22:47:37.697Z,3.65
2023-05-15T22:50:07.197Z,3.42
2023-05-15T22:52:33.620Z,3.78
2023-05-15T22:54:59.871Z,3.65
2023-05-15T22:57:28.671Z,4.88
2023-05-15T22:59:54.865Z,3.72
2023-05-15T23:02:22.852Z,4.30
2023-05-15T23:04:49.186Z,3.95
2023-05-15T23:07:16.838Z,4.35
2023-05-15T23:09:45.849Z,4.10
2023-05-15T23:12:12.041Z,3.90
2023-05-15T23:14:38.273Z,4.60
2023-05-15T23:17:05.273Z,4.55
2023-05-15T23:19:33.703Z,4.10
2023-05-15T23:22:00.208Z,4.47
2023-05-15T23:24:28.750Z,4.65
2023-05-15T23:26:55.034Z,4.35
2023-05-15T23:29:21.487Z,5.18
2023-05-15T23:31:53.187Z,4.88
2023-05-15T23:34:19.630Z,4.35
2023-05-15T23:36:45.811Z,4.95
2023-05-15T23:39:14.434Z,4.35
2023-05-15T23:41:40.762Z,4.50
2023-05-15T23:44:07.232Z,5.10
2023-05-15T23:46:39.212Z,4.28
2023-05-15T23:49:05.731Z,4.65
2023-05-15T23:51:32.130Z,4.22
2023-05-15T23:54:01.258Z,4.57
2023-05-15T23:56:30.671Z,4.60
2023-05-15T23:58:56.820Z,5.10
